Observation data for Fluvanna on 09/12/2017      Previous  Date       Current Mesonet Observations  Soil Data  Daily Summary Page  Observations in Plain Language
KFVS 120500Z 11006KT 19/08 A3011 RMK A01 T01900076  RH  048%=      5-min Rain = 0
KFVS 120505Z 10006KT 19/08 A3011 RMK A01 T01910076  RH  048%=      5-min Rain = 0
KFVS 120510Z 10006KT 19/08 A301 RMK A01 T01910075  RH  048%=      5-min Rain = 0
KFVS 120515Z 10007KT 19/07 A301 RMK A01 T01880074  RH  048%=      5-min Rain = 0
KFVS 120520Z 10007KT 19/08 A301 RMK A01 T01850075  RH  049%=      5-min Rain = 0
KFVS 120525Z 10007KT 19/08 A301 RMK A01 T01850075  RH  049%=      5-min Rain = 0
KFVS 120530Z 10007KT 19/07 A301 RMK A01 T01860074  RH  049%=      5-min Rain = 0
KFVS 120535Z 10007KT 19/07 A301 RMK A01 T01870074  RH  048%=      5-min Rain = 0
KFVS 120540Z 09007KT 19/07 A301 RMK A01 T01870074  RH  048%=      5-min Rain = 0
KFVS 120545Z 10006KT 19/07 A301 RMK A01 T01860073  RH  048%=      5-min Rain = 0
KFVS 120550Z 09006KT 19/07 A301 RMK A01 T01860073  RH  048%=      5-min Rain = 0
KFVS 120555Z 09006KT 19/07 A301 RMK A01 T01860074  RH  049%=      5-min Rain = 0
KFVS 120600Z 09006KT 19/07 A301 RMK A01 T01860074  RH  049%=      5-min Rain = 0
KFVS 120605Z 10006KT 19/07 A301 RMK A01 T01860074  RH  049%=      5-min Rain = 0
KFVS 120610Z 10006KT 19/07 A3009 RMK A01 T01850074  RH  049%=      5-min Rain = 0
KFVS 120615Z 10007KT 18/07 A3009 RMK A01 T01830074  RH  050%=      5-min Rain = 0
KFVS 120620Z 09007KT 18/07 A3009 RMK A01 T01810074  RH  050%=      5-min Rain = 0
KFVS 120625Z 09007KT 18/07 A3009 RMK A01 T01790074  RH  051%=      5-min Rain = 0
KFVS 120630Z 09006KT 18/07 A3009 RMK A01 T01790074  RH  051%=      5-min Rain = 0
KFVS 120635Z 09006KT 18/07 A3009 RMK A01 T01790074  RH  051%=      5-min Rain = 0
KFVS 120640Z 09006KT 18/08 A3009 RMK A01 T01800075  RH  051%=      5-min Rain = 0
KFVS 120645Z 10006KT 18/08 A3008 RMK A01 T01820075  RH  050%=      5-min Rain = 0
KFVS 120650Z 10006KT 18/08 A3008 RMK A01 T01830075  RH  050%=      5-min Rain = 0
KFVS 120655Z 10006KT 18/08 A3008 RMK A01 T01830075  RH  050%=      5-min Rain = 0
KFVS 120700Z 10006KT 18/07 A3008 RMK A01 T01800074  RH  051%=      5-min Rain = 0
KFVS 120705Z 10006KT 18/07 A3008 RMK A01 T01770074  RH  052%=      5-min Rain = 0
KFVS 120710Z 10006KT 18/08 A3008 RMK A01 T01770075  RH  052%=      5-min Rain = 0
KFVS 120715Z 10006KT 18/08 A3008 RMK A01 T01770075  RH  052%=      5-min Rain = 0
KFVS 120720Z 10006KT 18/07 A3008 RMK A01 T01760074  RH  052%=      5-min Rain = 0
KFVS 120725Z 10006KT 18/07 A3008 RMK A01 T01750074  RH  052%=      5-min Rain = 0
KFVS 120730Z 10006KT 17/07 A3008 RMK A01 T01740074  RH  053%=      5-min Rain = 0
KFVS 120735Z 10007KT 17/07 A3007 RMK A01 T01730074  RH  053%=      5-min Rain = 0
KFVS 120740Z 10006KT 17/07 A3007 RMK A01 T01720074  RH  053%=      5-min Rain = 0
KFVS 120745Z 10007KT 17/07 A3007 RMK A01 T01720074  RH  053%=      5-min Rain = 0
KFVS 120750Z 10006KT 17/08 A3007 RMK A01 T01720075  RH  054%=      5-min Rain = 0
KFVS 120755Z 10006KT 17/08 A3007 RMK A01 T01720075  RH  054%=      5-min Rain = 0
KFVS 120800Z 10006KT 17/07 A3007 RMK A01 T01730074  RH  053%=      5-min Rain = 0
KFVS 120805Z 10007KT 17/07 A3007 RMK A01 T01720074  RH  053%=      5-min Rain = 0
KFVS 120810Z 10006KT 17/08 A3007 RMK A01 T01710075  RH  054%=      5-min Rain = 0
KFVS 120815Z 10006KT 17/08 A3007 RMK A01 T01720075  RH  054%=      5-min Rain = 0
KFVS 120820Z 10006KT 17/08 A3007 RMK A01 T01730075  RH  053%=      5-min Rain = 0
KFVS 120825Z 10006KT 17/08 A3007 RMK A01 T01730075  RH  053%=      5-min Rain = 0
KFVS 120830Z 11006KT 17/08 A3006 RMK A01 T01740075  RH  053%=      5-min Rain = 0
KFVS 120835Z 11005KT 18/07 A3006 RMK A01 T01760074  RH  052%=      5-min Rain = 0
KFVS 120840Z 10006KT 18/07 A3006 RMK A01 T01760074  RH  052%=      5-min Rain = 0
KFVS 120845Z 10006KT 17/07 A3006 RMK A01 T01740074  RH  053%=      5-min Rain = 0
KFVS 120850Z 11005KT 17/08 A3006 RMK A01 T01730075  RH  053%=      5-min Rain = 0
KFVS 120855Z 11005KT 17/08 A3006 RMK A01 T01740075  RH  053%=      5-min Rain = 0
KFVS 120900Z 11005KT 17/08 A3006 RMK A01 T01730075  RH  053%=      5-min Rain = 0
KFVS 120905Z 11005KT 17/08 A3006 RMK A01 T01730075  RH  053%=      5-min Rain = 0
KFVS 120910Z 11005KT 17/07 A3006 RMK A01 T01730074  RH  053%=      5-min Rain = 0
KFVS 120915Z 11005KT 17/07 A3006 RMK A01 T01730074  RH  053%=      5-min Rain = 0
KFVS 120920Z 12006KT 17/07 A3006 RMK A01 T01720074  RH  053%=      5-min Rain = 0
KFVS 120925Z 12006KT 17/07 A3006 RMK A01 T01720074  RH  053%=      5-min Rain = 0
KFVS 120930Z 12005KT 17/08 A3006 RMK A01 T01710075  RH  054%=      5-min Rain = 0
KFVS 120935Z 12005KT 17/08 A3006 RMK A01 T01710075  RH  054%=      5-min Rain = 0
KFVS 120940Z 12004KT 17/08 A3006 RMK A01 T01720075  RH  054%=      5-min Rain = 0
KFVS 120945Z 12004KT 17/08 A3006 RMK A01 T01720075  RH  054%=      5-min Rain = 0
KFVS 120950Z 11004KT 17/08 A3006 RMK A01 T01710075  RH  054%=      5-min Rain = 0
KFVS 120955Z 11004KT 17/08 A3006 RMK A01 T01690076  RH  055%=      5-min Rain = 0
KFVS 121000Z 11004KT 17/08 A3006 RMK A01 T01680076  RH  055%=      5-min Rain = 0
KFVS 121005Z 11004KT 17/08 A3006 RMK A01 T01690076  RH  055%=      5-min Rain = 0
KFVS 121010Z 11004KT 17/08 A3006 RMK A01 T01690076  RH  055%=      5-min Rain = 0
KFVS 121015Z 11004KT 17/08 A3006 RMK A01 T01700077  RH  055%=      5-min Rain = 0
KFVS 121020Z 11003KT 17/08 A3005 RMK A01 T01710077  RH  055%=      5-min Rain = 0
KFVS 121025Z 12003KT 17/08 A3005 RMK A01 T01710077  RH  055%=      5-min Rain = 0
KFVS 121030Z 12004KT 17/08 A3005 RMK A01 T01720077  RH  054%=      5-min Rain = 0
KFVS 121035Z 12004KT 17/08 A3006 RMK A01 T01720077  RH  054%=      5-min Rain = 0
KFVS 121040Z 13003KT 17/08 A3006 RMK A01 T01720077  RH  055%=      5-min Rain = 0
KFVS 121045Z 13003KT 17/08 A3006 RMK A01 T01730078  RH  054%=      5-min Rain = 0
KFVS 121050Z 14003KT 17/08 A3006 RMK A01 T01740078  RH  054%=      5-min Rain = 0
KFVS 121055Z 15003KT 18/08 A3006 RMK A01 T01750078  RH  053%=      5-min Rain = 0
KFVS 121100Z 15003KT 18/08 A3006 RMK A01 T01760078  RH  053%=      5-min Rain = 0
KFVS 121105Z 14002KT 18/08 A3006 RMK A01 T01750077  RH  053%=      5-min Rain = 0
KFVS 121110Z 13002KT 17/08 A3006 RMK A01 T01670076  RH  056%=      5-min Rain = 0
KFVS 121115Z 12002KT 16/08 A3006 RMK A01 T01620077  RH  058%=      5-min Rain = 0
KFVS 121120Z 12002KT 16/08 A3006 RMK A01 T01590077  RH  059%=      5-min Rain = 0
KFVS 121125Z 13001KT 16/08 A3006 RMK A01 T01590077  RH  059%=      5-min Rain = 0
KFVS 121130Z 12001KT 16/08 A3006 RMK A01 T01600077  RH  059%=      5-min Rain = 0
KFVS 121135Z 10001KT 16/08 A3006 RMK A01 T01570075  RH  059%=      5-min Rain = 0
KFVS 121140Z 09002KT 16/08 A3006 RMK A01 T01550076  RH  060%=      5-min Rain = 0
KFVS 121145Z 08002KT 15/08 A3006 RMK A01 T01510075  RH  061%=      5-min Rain = 0
KFVS 121150Z 09003KT 15/08 A3006 RMK A01 T01490076  RH  062%=      5-min Rain = 0
KFVS 121155Z 09003KT 15/08 A3006 RMK A01 T01500076  RH  062%=      5-min Rain = 0
KFVS 121200Z 09003KT 15/08 A3006 RMK A01 T01510076  RH  062%=      5-min Rain = 0
KFVS 121205Z 09002KT 15/08 A3006 RMK A01 T01510077  RH  062%=      5-min Rain = 0
KFVS 121210Z 09002KT 15/08 A3006 RMK A01 T01540079  RH  062%=      5-min Rain = 0
KFVS 121215Z 09002KT 16/08 A3006 RMK A01 T01550078  RH  061%=      5-min Rain = 0
KFVS 121220Z 09002KT 16/08 A3006 RMK A01 T01550078  RH  061%=      5-min Rain = 0
KFVS 121225Z 08003KT 15/08 A3006 RMK A01 T01530078  RH  062%=      5-min Rain = 0
KFVS 121230Z 08003KT 15/08 A3006 RMK A01 T01510077  RH  062%=      5-min Rain = 0
KFVS 121235Z 08003KT 15/08 A3006 RMK A01 T01490077  RH  063%=      5-min Rain = 0
KFVS 121240Z 08003KT 15/08 A3006 RMK A01 T01490077  RH  063%=      5-min Rain = 0
KFVS 121245Z 09002KT 15/08 A3007 RMK A01 T01490078  RH  063%=      5-min Rain = 0
KFVS 121250Z 08003KT 15/08 A3007 RMK A01 T01520078  RH  062%=      5-min Rain = 0
KFVS 121255Z 08003KT 15/08 A3007 RMK A01 T01530078  RH  062%=      5-min Rain = 0
KFVS 121300Z 09003KT 15/08 A3007 RMK A01 T01540079  RH  062%=      5-min Rain = 0
KFVS 121305Z 09002KT 16/08 A3007 RMK A01 T01570081  RH  061%=      5-min Rain = 0
KFVS 121310Z 10002KT 16/08 A3007 RMK A01 T01640083  RH  060%=      5-min Rain = 0
KFVS 121315Z 10002KT 17/09 A3007 RMK A01 T01710085  RH  058%=      5-min Rain = 0
KFVS 121320Z 10003KT 18/09 A3007 RMK A01 T01770088  RH  057%=      5-min Rain = 0
KFVS 121325Z 10003KT 18/09 A3007 RMK A01 T01840088  RH  055%=      5-min Rain = 0
KFVS 121330Z 10002KT 19/09 A3007 RMK A01 T01910090  RH  053%=      5-min Rain = 0
KFVS 121335Z 11001KT 20/09 A3007 RMK A01 T01980091  RH  051%=      5-min Rain = 0
KFVS 121340Z 12001KT 21/09 A3007 RMK A01 T02050090  RH  048%=      5-min Rain = 0
KFVS 121345Z 17001KT 21/09 A3007 RMK A01 T02110091  RH  047%=      5-min Rain = 0
KFVS 121350Z 19001KT 21/09 A3007 RMK A01 T02140093  RH  047%=      5-min Rain = 0
KFVS 121355Z 21001KT 22/09 A3007 RMK A01 T02150094  RH  047%=      5-min Rain = 0
KFVS 121400Z 22000KT 22/10 A3008 RMK A01 T02150095  RH  047%=      5-min Rain = 0
KFVS 121405Z 21002KT 22/09 A3007 RMK A01 T02180092  RH  045%=      5-min Rain = 0
KFVS 121410Z 21002KT 22/09 A3007 RMK A01 T02200090  RH  044%=      5-min Rain = 0
KFVS 121415Z 21002KT 22/09 A3007 RMK A01 T02230090  RH  043%=      5-min Rain = 0
KFVS 121420Z 20002KT 23/09 A3007 RMK A01 T02250091  RH  043%=      5-min Rain = 0
KFVS 121425Z 20003KT 23/09 A3007 RMK A01 T02270091  RH  042%=      5-min Rain = 0
KFVS 121430Z 19002KT 23/09 A3007 RMK A01 T02300091  RH  042%=      5-min Rain = 0
KFVS 121435Z 18002KT 23/09 A3007 RMK A01 T02320090  RH  041%=      5-min Rain = 0
KFVS 121440Z 21003KT 24/09 A3007 RMK A01 T02360089  RH  040%=      5-min Rain = 0
KFVS 121445Z 20003KT 24/09 A3007 RMK A01 T02380088  RH  039%=      5-min Rain = 0
KFVS 121450Z 19002KT 24/09 A3007 RMK A01 T02400089  RH  039%=      5-min Rain = 0
KFVS 121455Z 19002KT 24/09 A3007 RMK A01 T02440088  RH  038%=      5-min Rain = 0
KFVS 121500Z 19003KT 25/09 A3007 RMK A01 T02460088  RH  037%=      5-min Rain = 0
KFVS 121505Z 20003KT 25/09 A3007 RMK A01 T02490086  RH  036%=      5-min Rain = 0
KFVS 121510Z 19003KT 25/08 A3007 RMK A01 T02500084  RH  035%=      5-min Rain = 0
KFVS 121515Z 19004KT 25/08 A3007 RMK A01 T02520084  RH  035%=      5-min Rain = 0
KFVS 121520Z 22003KT 25/09 A3007 RMK A01 T02540085  RH  035%=      5-min Rain = 0
KFVS 121525Z 23004KT 26/09 A3007 RMK A01 T02580085  RH  034%=      5-min Rain = 0
KFVS 121530Z 24004KT 26/08 A3007 RMK A01 T02590084  RH  033%=      5-min Rain = 0
KFVS 121535Z 23005KT 26/08 A3006 RMK A01 T02600083  RH  033%=      5-min Rain = 0
KFVS 121540Z 22004KT 26/08 A3006 RMK A01 T02610084  RH  033%=      5-min Rain = 0
KFVS 121545Z 21005KT 26/08 A3006 RMK A01 T02630083  RH  033%=      5-min Rain = 0
KFVS 121550Z 20005KT 26/08 A3007 RMK A01 T02620082  RH  032%=      5-min Rain = 0
KFVS 121555Z 24005KT 26/08 A3007 RMK A01 T02640083  RH  032%=      5-min Rain = 0
KFVS 121600Z 22003KT 27/08 A3006 RMK A01 T02680084  RH  032%=      5-min Rain = 0
KFVS 121605Z 22005KT 27/09 A3006 RMK A01 T02710085  RH  031%=      5-min Rain = 0
KFVS 121610Z 24005KT 27/08 A3006 RMK A01 T02720084  RH  031%=      5-min Rain = 0
KFVS 121615Z 25004KT 27/08 A3006 RMK A01 T02720083  RH  031%=      5-min Rain = 0
KFVS 121620Z 22005KT 27/08 A3006 RMK A01 T02730084  RH  031%=      5-min Rain = 0
KFVS 121625Z 24003KT 28/08 A3006 RMK A01 T02750083  RH  030%=      5-min Rain = 0
KFVS 121630Z 24003G8KT 28/08 A3006 RMK A01 T02780084  RH  030%=      5-min Rain = 0
KFVS 121635Z 24004KT 28/08 A3006 RMK A01 T02800084  RH  030%=      5-min Rain = 0
KFVS 121640Z 22003KT 28/08 A3005 RMK A01 T02790082  RH  029%=      5-min Rain = 0
KFVS 121645Z 25005KT 28/08 A3005 RMK A01 T02810084  RH  029%=      5-min Rain = 0
KFVS 121650Z 23004KT 28/09 A3005 RMK A01 T02840085  RH  029%=      5-min Rain = 0
KFVS 121655Z 21004KT 29/08 A3005 RMK A01 T02880084  RH  028%=      5-min Rain = 0
KFVS 121700Z 23006KT 29/09 A3005 RMK A01 T02890085  RH  028%=      5-min Rain = 0
KFVS 121705Z 20003KT 29/08 A3005 RMK A01 T02890084  RH  028%=      5-min Rain = 0
KFVS 121710Z 16004KT 29/08 A3005 RMK A01 T02900083  RH  028%=      5-min Rain = 0
KFVS 121715Z 34003KT 29/08 A3004 RMK A01 T02900083  RH  028%=      5-min Rain = 0
KFVS 121720Z 02006KT 29/08 A3004 RMK A01 T02900083  RH  028%=      5-min Rain = 0
KFVS 121725Z 04003KT 29/08 A3004 RMK A01 T02910084  RH  028%=      5-min Rain = 0
KFVS 121730Z 21004KT 30/09 A3004 RMK A01 T02970085  RH  027%=      5-min Rain = 0
KFVS 121735Z 19003KT 30/09 A3004 RMK A01 T02990085  RH  027%=      5-min Rain = 0
KFVS 121740Z 30001KT 30/08 A3003 RMK A01 T03010083  RH  026%=      5-min Rain = 0
KFVS 121745Z 01003KT 30/09 A3003 RMK A01 T03020086  RH  026%=      5-min Rain = 0
KFVS 121750Z 28004KT 31/09 A3003 RMK A01 T03050086  RH  026%=      5-min Rain = 0
KFVS 121755Z 27005KT 31/09 A3003 RMK A01 T03060087  RH  026%=      5-min Rain = 0
KFVS 121800Z 28006KT 31/09 A3003 RMK A01 T03050086  RH  026%=      5-min Rain = 0
KFVS 121805Z 23004KT 31/09 A3002 RMK A01 T03050086  RH  026%=      5-min Rain = 0
KFVS 121810Z 33005G13KT 31/09 A3002 RMK A01 T03080086  RH  026%=      5-min Rain = 0
KFVS 121815Z 31004G10KT 31/09 A3002 RMK A01 T03100085  RH  025%=      5-min Rain = 0
KFVS 121820Z 35004KT 31/09 A3001 RMK A01 T03090085  RH  025%=      5-min Rain = 0
KFVS 121825Z 35002G9KT 31/08 A3001 RMK A01 T03080084  RH  025%=      5-min Rain = 0
KFVS 121830Z 34006KT 31/08 A3001 RMK A01 T03130083  RH  024%=      5-min Rain = 0
KFVS 121835Z 06003KT 31/08 A3001 RMK A01 T03090080  RH  024%=      5-min Rain = 0
KFVS 121840Z 34004G9KT 31/08 A30 RMK A01 T03090083  RH  025%=      5-min Rain = 0
KFVS 121845Z 34007KT 32/08 A30 RMK A01 T03160083  RH  024%=      5-min Rain = 0
KFVS 121850Z 35007KT 32/08 A30 RMK A01 T03170084  RH  024%=      5-min Rain = 0
KFVS 121855Z 35007KT 32/08 A30 RMK A01 T03160083  RH  024%=      5-min Rain = 0
KFVS 121900Z 05004KT 32/08 A2999 RMK A01 T03160081  RH  024%=      5-min Rain = 0
KFVS 121905Z 34006G12KT 32/08 A2999 RMK A01 T03180083  RH  024%=      5-min Rain = 0
KFVS 121910Z 35007G13KT 32/08 A2999 RMK A01 T03220083  RH  023%=      5-min Rain = 0
KFVS 121915Z 33005KT 32/08 A2999 RMK A01 T03220084  RH  023%=      5-min Rain = 0
KFVS 121920Z 31005KT 32/08 A2998 RMK A01 T03240083  RH  023%=      5-min Rain = 0
KFVS 121925Z 30005KT 32/08 A2998 RMK A01 T03220083  RH  023%=      5-min Rain = 0
KFVS 121930Z 35003G9KT 32/08 A2998 RMK A01 T03230082  RH  023%=      5-min Rain = 0
KFVS 121935Z 33008KT 33/08 A2997 RMK A01 T03270084  RH  023%=      5-min Rain = 0
KFVS 121940Z 00006KT 33/08 A2997 RMK A01 T03320083  RH  022%=      5-min Rain = 0
KFVS 121945Z 03004G9KT 33/08 A2997 RMK A01 T03290082  RH  022%=      5-min Rain = 0
KFVS 121950Z 36006G11KT 33/08 A2996 RMK A01 T03270082  RH  022%=      5-min Rain = 0
KFVS 121955Z 29001G6KT 33/08 A2996 RMK A01 T03270082  RH  022%=      5-min Rain = 0
KFVS 122000Z 29005G10KT 33/08 A2996 RMK A01 T03310082  RH  022%=      5-min Rain = 0
KFVS 122005Z 28005KT 33/08 A2995 RMK A01 T03330083  RH  022%=      5-min Rain = 0
KFVS 122010Z 31004G10KT 33/08 A2995 RMK A01 T03330081  RH  021%=      5-min Rain = 0
KFVS 122015Z 15002KT 33/08 A2995 RMK A01 T03320079  RH  021%=      5-min Rain = 0
KFVS 122020Z 34006G14KT 33/08 A2994 RMK A01 T03340081  RH  021%=      5-min Rain = 0
KFVS 122025Z 34009KT 34/08 A2994 RMK A01 T03380081  RH  021%=      5-min Rain = 0
KFVS 122030Z 33007KT 34/08 A2994 RMK A01 T03350080  RH  021%=      5-min Rain = 0
KFVS 122035Z 31007G13KT 34/08 A2994 RMK A01 T03350080  RH  021%=      5-min Rain = 0
KFVS 122040Z 36005G11KT 34/08 A2993 RMK A01 T03350080  RH  021%=      5-min Rain = 0
KFVS 122045Z 35008KT 34/08 A2993 RMK A01 T03400080  RH  020%=      5-min Rain = 0
KFVS 122050Z 01007G12KT 34/08 A2993 RMK A01 T03370079  RH  021%=      5-min Rain = 0
KFVS 122055Z 06007KT 34/08 A2992 RMK A01 T03370078  RH  021%=      5-min Rain = 0
KFVS 122100Z 35005G11KT 34/08 A2992 RMK A01 T03360078  RH  021%=      5-min Rain = 0
KFVS 122105Z 31005G11KT 34/08 A2992 RMK A01 T03380078  RH  020%=      5-min Rain = 0
KFVS 122110Z 35004KT 34/08 A2992 RMK A01 T03370077  RH  020%=      5-min Rain = 0
KFVS 122115Z 00005KT 34/08 A2991 RMK A01 T03370078  RH  021%=      5-min Rain = 0
KFVS 122120Z 01005G11KT 34/08 A2991 RMK A01 T03400078  RH  020%=      5-min Rain = 0
KFVS 122125Z 00008G14KT 35/07 A2991 RMK A01 T03450074  RH  019%=      5-min Rain = 0
KFVS 122130Z 02010KT 34/08 A2991 RMK A01 T03430076  RH  020%=      5-min Rain = 0
KFVS 122135Z 02008G14KT 34/08 A2991 RMK A01 T03440075  RH  019%=      5-min Rain = 0
KFVS 122140Z 31006G11KT 34/07 A2991 RMK A01 T03440073  RH  019%=      5-min Rain = 0
KFVS 122145Z 33009G15KT 34/08 A2991 RMK A01 T03440075  RH  019%=      5-min Rain = 0
KFVS 122150Z 32009KT 34/08 A2991 RMK A01 T03420075  RH  020%=      5-min Rain = 0
KFVS 122155Z 35006KT 34/08 A2991 RMK A01 T03420078  RH  020%=      5-min Rain = 0
KFVS 122200Z 32006KT 34/08 A2991 RMK A01 T03430076  RH  020%=      5-min Rain = 0
KFVS 122205Z 30004KT 34/08 A299 RMK A01 T03420076  RH  020%=      5-min Rain = 0
KFVS 122210Z 30003KT 35/08 A299 RMK A01 T03450076  RH  019%=      5-min Rain = 0
KFVS 122215Z 34006G11KT 34/08 A299 RMK A01 T03430076  RH  020%=      5-min Rain = 0
KFVS 122220Z 33004KT 34/07 A299 RMK A01 T03410074  RH  020%=      5-min Rain = 0
KFVS 122225Z 32003KT 34/08 A299 RMK A01 T03400075  RH  020%=      5-min Rain = 0
KFVS 122230Z 35006G12KT 34/08 A299 RMK A01 T03420077  RH  020%=      5-min Rain = 0
KFVS 122235Z 35008KT 34/08 A299 RMK A01 T03420079  RH  020%=      5-min Rain = 0
KFVS 122240Z 01004KT 34/08 A299 RMK A01 T03400076  RH  020%=      5-min Rain = 0
KFVS 122245Z 01006KT 34/08 A299 RMK A01 T03400077  RH  020%=      5-min Rain = 0
KFVS 122250Z 01006KT 34/08 A2989 RMK A01 T03390077  RH  020%=      5-min Rain = 0
KFVS 122255Z 03003KT 34/08 A299 RMK A01 T03370076  RH  020%=      5-min Rain = 0
KFVS 122300Z 04001KT 34/08 A299 RMK A01 T03350075  RH  020%=      5-min Rain = 0
KFVS 122305Z 15001KT 33/08 A2989 RMK A01 T03340075  RH  020%=      5-min Rain = 0
KFVS 122310Z 16002KT 34/08 A2989 RMK A01 T03350075  RH  020%=      5-min Rain = 0
KFVS 122315Z 30003KT 34/08 A2989 RMK A01 T03350075  RH  020%=      5-min Rain = 0
KFVS 122320Z 07002KT 33/08 A2989 RMK A01 T03340075  RH  021%=      5-min Rain = 0
KFVS 122325Z 07006KT 33/08 A2989 RMK A01 T03340076  RH  020%=      5-min Rain = 0
KFVS 122330Z 03007KT 34/08 A2989 RMK A01 T03350076  RH  020%=      5-min Rain = 0
KFVS 122335Z 04004KT 33/08 A2989 RMK A01 T03330076  RH  021%=      5-min Rain = 0
KFVS 122340Z 04002KT 33/08 A2989 RMK A01 T03330075  RH  021%=      5-min Rain = 0
KFVS 122345Z 02005KT 33/08 A2989 RMK A01 T03330076  RH  021%=      5-min Rain = 0
KFVS 122350Z 02007KT 33/08 A2988 RMK A01 T03320076  RH  021%=      5-min Rain = 0
KFVS 122355Z 04007KT 33/08 A2988 RMK A01 T03310075  RH  021%=      5-min Rain = 0
KFVS 130000Z 06004KT 33/08 A2988 RMK A01 T03290075  RH  021%=      5-min Rain = 0
KFVS 130005Z 07005KT 33/08 A2988 RMK A01 T03280076  RH  021%=      5-min Rain = 0
KFVS 130010Z 07005KT 33/08 A2988 RMK A01 T03260077  RH  022%=      5-min Rain = 0
KFVS 130015Z 07006KT 32/08 A2988 RMK A01 T03240077  RH  022%=      5-min Rain = 0
KFVS 130020Z 07006KT 32/08 A2988 RMK A01 T03210078  RH  022%=      5-min Rain = 0
KFVS 130025Z 08006KT 32/08 A2988 RMK A01 T03180078  RH  023%=      5-min Rain = 0
KFVS 130030Z 09006KT 32/08 A2988 RMK A01 T03150078  RH  023%=      5-min Rain = 0
KFVS 130035Z 08005KT 31/08 A2988 RMK A01 T03110079  RH  024%=      5-min Rain = 0
KFVS 130040Z 09005KT 31/08 A2988 RMK A01 T03060079  RH  025%=      5-min Rain = 0
KFVS 130045Z 09007KT 30/08 A2987 RMK A01 T03010079  RH  025%=      5-min Rain = 0
KFVS 130050Z 09007KT 30/08 A2988 RMK A01 T02980081  RH  026%=      5-min Rain = 0
KFVS 130055Z 10008KT 30/08 A2988 RMK A01 T02960082  RH  027%=      5-min Rain = 0
KFVS 130100Z 10007KT 29/08 A2988 RMK A01 T02930083  RH  027%=      5-min Rain = 0
KFVS 130105Z 11008KT 29/08 A2988 RMK A01 T02900084  RH  028%=      5-min Rain = 0
KFVS 130110Z 10008KT 29/09 A2988 RMK A01 T02870085  RH  028%=      5-min Rain = 0
KFVS 130115Z 10008KT 28/09 A2988 RMK A01 T02840085  RH  029%=      5-min Rain = 0
KFVS 130120Z 11008KT 28/09 A2988 RMK A01 T02820085  RH  030%=      5-min Rain = 0
KFVS 130125Z 11007KT 28/09 A2988 RMK A01 T02780085  RH  030%=      5-min Rain = 0
KFVS 130130Z 11007KT 28/09 A2988 RMK A01 T02750085  RH  031%=      5-min Rain = 0
KFVS 130135Z 11007KT 27/09 A2988 RMK A01 T02730085  RH  031%=      5-min Rain = 0
KFVS 130140Z 11007KT 27/09 A2989 RMK A01 T02700085  RH  032%=      5-min Rain = 0
KFVS 130145Z 11007KT 27/09 A2989 RMK A01 T02670085  RH  032%=      5-min Rain = 0
KFVS 130150Z 11007KT 26/09 A2989 RMK A01 T02640085  RH  033%=      5-min Rain = 0
KFVS 130155Z 11008KT 26/09 A2989 RMK A01 T02640085  RH  033%=      5-min Rain = 0
KFVS 130200Z 11008KT 26/09 A2989 RMK A01 T02630085  RH  033%=      5-min Rain = 0
KFVS 130205Z 11007KT 26/09 A299 RMK A01 T02620085  RH  033%=      5-min Rain = 0
KFVS 130210Z 12007KT 26/08 A299 RMK A01 T02580084  RH  034%=      5-min Rain = 0
KFVS 130215Z 12007KT 25/09 A299 RMK A01 T02540085  RH  035%=      5-min Rain = 0
KFVS 130220Z 11007KT 25/09 A299 RMK A01 T02510085  RH  035%=      5-min Rain = 0
KFVS 130225Z 10007KT 25/09 A299 RMK A01 T02490085  RH  036%=      5-min Rain = 0
KFVS 130230Z 10007KT 25/09 A2991 RMK A01 T02460085  RH  036%=      5-min Rain = 0
KFVS 130235Z 10006KT 24/08 A2991 RMK A01 T02430084  RH  037%=      5-min Rain = 0
KFVS 130240Z 10007KT 24/08 A2991 RMK A01 T02410084  RH  037%=      5-min Rain = 0
KFVS 130245Z 10007KT 24/09 A2991 RMK A01 T02410085  RH  038%=      5-min Rain = 0
KFVS 130250Z 10008KT 24/09 A2991 RMK A01 T02410085  RH  038%=      5-min Rain = 0
KFVS 130255Z 10007KT 24/09 A2991 RMK A01 T02400086  RH  038%=      5-min Rain = 0
KFVS 130300Z 10007KT 24/09 A2991 RMK A01 T02390086  RH  038%=      5-min Rain = 0
KFVS 130305Z 10007KT 24/09 A2991 RMK A01 T02390087  RH  038%=      5-min Rain = 0
KFVS 130310Z 10007KT 24/09 A2991 RMK A01 T02390087  RH  038%=      5-min Rain = 0
KFVS 130315Z 09007KT 24/09 A2991 RMK A01 T02400087  RH  038%=      5-min Rain = 0
KFVS 130320Z 09007KT 24/09 A2991 RMK A01 T02390085  RH  038%=      5-min Rain = 0
KFVS 130325Z 10007KT 24/09 A2991 RMK A01 T02360086  RH  039%=      5-min Rain = 0
KFVS 130330Z 09007KT 23/09 A2991 RMK A01 T02340086  RH  039%=      5-min Rain = 0
KFVS 130335Z 10006KT 23/09 A2991 RMK A01 T02320086  RH  040%=      5-min Rain = 0
KFVS 130340Z 10007KT 23/09 A2992 RMK A01 T02300086  RH  040%=      5-min Rain = 0
KFVS 130345Z 10007KT 23/09 A2992 RMK A01 T02290086  RH  041%=      5-min Rain = 0
KFVS 130350Z 10007KT 23/09 A2992 RMK A01 T02270085  RH  041%=      5-min Rain = 0
KFVS 130355Z 09007KT 23/09 A2992 RMK A01 T02260085  RH  041%=      5-min Rain = 0
KFVS 130400Z 09007KT 22/08 A2992 RMK A01 T02240084  RH  041%=      5-min Rain = 0
KFVS 130405Z 09007KT 22/09 A2992 RMK A01 T02230085  RH  042%=      5-min Rain = 0
KFVS 130410Z 09007KT 22/08 A2992 RMK A01 T02240084  RH  041%=      5-min Rain = 0
KFVS 130415Z 10006KT 23/08 A2992 RMK A01 T02250084  RH  041%=      5-min Rain = 0
KFVS 130420Z 10006KT 22/08 A2992 RMK A01 T02240083  RH  041%=      5-min Rain = 0
KFVS 130425Z 09006KT 22/08 A2992 RMK A01 T02230083  RH  041%=      5-min Rain = 0
KFVS 130430Z 09006KT 22/08 A2992 RMK A01 T02230082  RH  041%=      5-min Rain = 0
KFVS 130435Z 09006KT 22/08 A2992 RMK A01 T02230081  RH  041%=      5-min Rain = 0
KFVS 130440Z 09006KT 22/08 A2992 RMK A01 T02220081  RH  041%=      5-min Rain = 0
KFVS 130445Z 08005KT 22/08 A2992 RMK A01 T02190080  RH  041%=      5-min Rain = 0
KFVS 130450Z 08005KT 22/08 A2992 RMK A01 T02170079  RH  042%=      5-min Rain = 0
KFVS 130455Z 08005KT 21/08 A2992 RMK A01 T02140079  RH  042%=      5-min Rain = 0

Page generated in 0.0095 seconds.